Home > Products > Valid Products > TAF

000
FTUS44 KMOB 221100
TAFPNS
TAF
KPNS 221135Z 2212/2312 32006KT P6SM SKC
     FM221700 21008KT P6SM VCTS SCT040CB
     FM230100 25003KT P6SM FEW040 SCT250=



000
FTUS44 KMOB 221100
TAFMOB
TAF
KMOB 221135Z 2212/2312 31003KT P6SM SCT250
     FM221700 23007KT P6SM VCTS SCT040CB
     FM230100 25003KT P6SM FEW040 SCT250=



000
FTUS44 KMOB 221100
TAFMOB
TAF
KMOB 221135Z 2212/2312 31003KT P6SM SCT250
     FM221700 23007KT P6SM VCTS SCT040CB
     FM230100 25003KT P6SM FEW040 SCT250=



000
FTUS44 KMOB 220500
TAFPNS
TAF
KPNS 220538Z 2206/2306 25005KT P6SM SCT250
     FM221200 34005KT P6SM SCT030
     FM221900 21008KT P6SM VCTS SCT040CB
     FM230000 25003KT P6SM FEW040 SCT250=



000
FTUS44 KMOB 220500
TAFMOB
TAF
KMOB 220538Z 2206/2306 26003KT P6SM SCT250
      TEMPO 2210/2212 5SM BR
     FM221500 34004KT P6SM SCT035
     FM221900 23007KT P6SM VCTS SCT040CB
     FM230000 25003KT P6SM FEW040 SCT250=



000
FTUS44 KMOB 220500
TAFMOB
TAF
KMOB 220538Z 2206/2306 26003KT P6SM SCT250
      TEMPO 2210/2212 5SM BR
     FM221500 34004KT P6SM SCT035
     FM221900 23007KT P6SM VCTS SCT040CB
     FM230000 25003KT P6SM FEW040 SCT250=



000
FTUS44 KMOB 220500
TAFPNS
TAF
KPNS 220538Z 2206/2306 25005KT P6SM SCT250
     FM221200 34005KT P6SM SCT030
     FM221900 21008KT P6SM VCTS SCT040CB
     FM230000 25003KT P6SM FEW040 SCT250=



000
FTUS44 KMOB 212300
TAFMOB
TAF
KMOB 212336Z 2200/2224 21005KT P6SM FEW040 SCT200
     FM221500 34004KT P6SM SCT035
     FM222100 21008KT P6SM SCT045=



000
FTUS44 KMOB 212300
TAFPNS
TAF
KPNS 212336Z 2200/2224 24005KT P6SM FEW030 SCT200
     FM221200 34005KT P6SM SCT030
     FM221800 21008KT P6SM SCT040=



000
FTUS44 KMOB 212300
TAFMOB
TAF
KMOB 212336Z 2200/2224 21005KT P6SM FEW040 SCT200
     FM221500 34004KT P6SM SCT035
     FM222100 21008KT P6SM SCT045=



000
FTUS44 KMOB 212300
TAFPNS
TAF
KPNS 212336Z 2200/2224 24005KT P6SM FEW030 SCT200
     FM221200 34005KT P6SM SCT030
     FM221800 21008KT P6SM SCT040=



000
FTUS44 KMOB 211700 RRA
TAFPNS
TAF
KPNS 211754Z 2118/2218 33004KT P6SM SCT029 BKN250
     FM212100 21008KT P6SM VCTS SCT030CB BKN250
     FM220000 22006KT P6SM FEW250
     FM221200 32002KT P6SM SCT250=



000
FTUS44 KMOB 211700 RRA
TAFMOB
TAF
KMOB 211754Z 2118/2218 00000KT P6SM BKN035 BKN250
     FM212100 21005KT P6SM VCTS BKN030CB BKN250
     FM220000 20004KT P6SM FEW250
     FM221200 00000KT P6SM SCT250=



000
FTUS44 KMOB 211700 RRA
TAFPNS
TAF
KPNS 211754Z 2118/2218 33004KT P6SM SCT029 BKN250
     FM212100 21008KT P6SM VCTS SCT030CB BKN250
     FM220000 22006KT P6SM FEW250
     FM221200 32002KT P6SM SCT250=



000
FTUS44 KMOB 211700 RRA
TAFMOB
TAF
KMOB 211754Z 2118/2218 00000KT P6SM BKN035 BKN250
     FM212100 21005KT P6SM VCTS BKN030CB BKN250
     FM220000 20004KT P6SM FEW250
     FM221200 00000KT P6SM SCT250=



000
FTUS44 KMOB 211100
TAFMOB
TAF
KMOB 211122Z 2112/2212 00000KT P6SM FEW250
     FM211800 21005KT P6SM VCTS SCT030CB SCT300
     FM220000 20004KT P6SM FEW250=



000
FTUS44 KMOB 211100
TAFPNS
TAF
KPNS 211122Z 2112/2212 30004KT P6SM FEW250
     FM211800 21006KT P6SM VCTS SCT030CB SCT300
     FM220000 22006KT P6SM FEW250=



000
FTUS44 KMOB 211100
TAFMOB
TAF
KMOB 211122Z 2112/2212 00000KT P6SM FEW250
     FM211800 21005KT P6SM VCTS SCT030CB SCT300
     FM220000 20004KT P6SM FEW250=



000
FTUS44 KMOB 211100
TAFPNS
TAF
KPNS 211122Z 2112/2212 30004KT P6SM FEW250
     FM211800 21006KT P6SM VCTS SCT030CB SCT300
     FM220000 22006KT P6SM FEW250=



000
FTUS44 KMOB 210500
TAFMOB
TAF
KMOB 210523Z 2106/2206 VRB02KT P6SM SKC
     FM211500 21004KT P6SM VCTS SCT030CB SCT300=



000
FTUS44 KMOB 210500
TAFPNS
TAF
KPNS 210523Z 2106/2206 25004KT P6SM SKC
     FM211500 21004KT P6SM VCTS SCT030CB SCT300=



000
FTUS44 KMOB 210500
TAFMOB
TAF
KMOB 210523Z 2106/2206 VRB02KT P6SM SKC
     FM211500 21004KT P6SM VCTS SCT030CB SCT300=



000
FTUS44 KMOB 210500
TAFPNS
TAF
KPNS 210523Z 2106/2206 25004KT P6SM SKC
     FM211500 21004KT P6SM VCTS SCT030CB SCT300=



000
FTUS44 KMOB 202300
TAFMOB
TAF
KMOB 202335Z 2100/2124 23007KT P6SM SCT025
     FM210300 VRB02KT P6SM SKC=



000
FTUS44 KMOB 202300
TAFPNS
TAF
KPNS 202335Z 2100/2124 19007KT P6SM SCT025
     FM210300 25004KT P6SM SKC=



000
FTUS44 KMOB 202300
TAFMOB
TAF
KMOB 202335Z 2100/2124 23007KT P6SM SCT025
     FM210300 VRB02KT P6SM SKC=



000
FTUS44 KMOB 202300
TAFPNS
TAF
KPNS 202335Z 2100/2124 19007KT P6SM SCT025
     FM210300 25004KT P6SM SKC=



000
FTUS44 KMOB 201700
TAFPNS
TAF
KPNS 201732Z 2018/2118 19007KT P6SM SCT025
     FM210300 25004KT P6SM SKC=



000
FTUS44 KMOB 201700
TAFPNS
TAF
KPNS 201732Z 2018/2118 19007KT P6SM SCT025
     FM210300 25004KT P6SM SKC=



000
FTUS44 KMOB 201700
TAFMOB
TAF
KMOB 201732Z 2018/2118 23007KT P6SM SCT025
     FM210300 VRB02KT P6SM SKC=



000
FTUS44 KMOB 201700
TAFMOB
TAF
KMOB 201732Z 2018/2118 23007KT P6SM SCT025
     FM210300 VRB02KT P6SM SKC=



000
FTUS44 KMOB 201100
TAFMOB
TAF
KMOB 201121Z 2012/2112 00000KT P6SM FEW015 SCT060 BKN250
     FM201500 23006KT P6SM VCTS SCT035CB SCT250
     FM210000 21006KT P6SM FEW250=



000
FTUS44 KMOB 201100
TAFPNS
TAF
KPNS 201121Z 2012/2112 00000KT P6SM SKC
     FM201500 29007KT P6SM VCTS SCT035CB SCT250
     FM210000 23009KT P6SM FEW250=



000
FTUS44 KMOB 201100
TAFMOB
TAF
KMOB 201121Z 2012/2112 00000KT P6SM FEW015 SCT060 BKN250
     FM201500 23006KT P6SM VCTS SCT035CB SCT250
     FM210000 21006KT P6SM FEW250=



000
FTUS44 KMOB 201100
TAFPNS
TAF
KPNS 201121Z 2012/2112 00000KT P6SM SKC
     FM201500 29007KT P6SM VCTS SCT035CB SCT250
     FM210000 23009KT P6SM FEW250=



000
FTUS44 KMOB 200500
TAFMOB
TAF
KMOB 200526Z 2006/2106 14008KT P6SM SCT250
     FM201500 23006KT P6SM VCTS SCT035CB SCT250=



000
FTUS44 KMOB 200500
TAFPNS
TAF
KPNS 200526Z 2006/2106 VRB03KT P6SM FEW050 SCT250
     FM201500 29007KT P6SM VCTS SCT035CB SCT250=



000
FTUS44 KMOB 200500
TAFPNS
TAF
KPNS 200526Z 2006/2106 VRB03KT P6SM FEW050 SCT250
     FM201500 29007KT P6SM VCTS SCT035CB SCT250=



000
FTUS44 KMOB 200500
TAFMOB
TAF
KMOB 200526Z 2006/2106 14008KT P6SM SCT250
     FM201500 23006KT P6SM VCTS SCT035CB SCT250=



000
FTUS44 KMOB 192300
TAFMOB
TAF
KMOB 192330Z 2000/2024 22008KT P6SM VCTS SCT035CB
     FM200300 VRB03KT P6SM SKC
     FM201200 23006KT P6SM SCT300 PROB30 2018/2024 P6SM -TSRA
      BKN050CB=



000
FTUS44 KMOB 192300
TAFPNS
TAF
KPNS 192330Z 2000/2024 24008KT P6SM SCT035
     FM200300 VRB03KT P6SM SKC
     FM201200 23006KT P6SM SCT300 PROB30 2018/2024 P6SM -TSRA
      BKN050CB=



000
FTUS44 KMOB 192300
TAFMOB
TAF
KMOB 192330Z 2000/2024 22008KT P6SM VCTS SCT035CB
     FM200300 VRB03KT P6SM SKC
     FM201200 23006KT P6SM SCT300 PROB30 2018/2024 P6SM -TSRA
      BKN050CB=



000
FTUS44 KMOB 192300
TAFPNS
TAF
KPNS 192330Z 2000/2024 24008KT P6SM SCT035
     FM200300 VRB03KT P6SM SKC
     FM201200 23006KT P6SM SCT300 PROB30 2018/2024 P6SM -TSRA
      BKN050CB=



000
FTUS44 KMOB 191700
TAFMOB
TAF
KMOB 191732Z 1918/2018 22008KT P6SM BKN035
     FM192100 22008KT P6SM VCTS SCT035CB
     FM200300 19003KT P6SM SKC=



000
FTUS44 KMOB 191700
TAFPNS
TAF
KPNS 191732Z 1918/2018 24008KT P6SM SCT035
     FM200300 24003KT P6SM SKC=



000
FTUS44 KMOB 191700
TAFMOB
TAF
KMOB 191732Z 1918/2018 22008KT P6SM BKN035
     FM192100 22008KT P6SM VCTS SCT035CB
     FM200300 19003KT P6SM SKC=



000
FTUS44 KMOB 191700
TAFPNS
TAF
KPNS 191732Z 1918/2018 24008KT P6SM SCT035
     FM200300 24003KT P6SM SKC=



    US Dept of Commerce
    National Oceanic and Atmospheric Administration
    National Weather Service
    1325 East West Highway
    Silver Spring, MD 20910
    Page Author: NWS Internet Services Team
Disclaimer
Information Quality
Credits
Glossary
Privacy Policy
Freedom of Information Act (FOIA)
About Us
Career Opportunities